sensor_id;sensor_type;location;lat;lon;timestamp;temperature;humidity
1570;DHT22;778;50.120;8.698;2022-11-20T00:01:38;2.70;99.90
1570;DHT22;778;50.120;8.698;2022-11-20T00:04:08;2.70;99.90
1570;DHT22;778;50.120;8.698;2022-11-20T00:06:38;2.70;99.90
1570;DHT22;778;50.120;8.698;2022-11-20T00:09:09;2.70;99.90
1570;DHT22;778;50.120;8.698;2022-11-20T00:11:38;2.70;99.90
1570;DHT22;778;50.120;8.698;2022-11-20T00:14:06;2.80;99.90
1570;DHT22;778;50.120;8.698;2022-11-20T00:16:36;2.80;99.90
1570;DHT22;778;50.120;8.698;2022-11-20T00:19:04;2.70;99.90
1570;DHT22;778;50.120;8.698;2022-11-20T00:21:33;2.60;99.90
1570;DHT22;778;50.120;8.698;2022-11-20T00:24:01;2.70;99.90
1570;DHT22;778;50.120;8.698;2022-11-20T00:26:29;2.80;99.90
1570;DHT22;778;50.120;8.698;2022-11-20T00:28:59;2.90;99.90
1570;DHT22;778;50.120;8.698;2022-11-20T00:31:29;2.80;99.90
1570;DHT22;778;50.120;8.698;2022-11-20T00:34:01;2.70;99.90
1570;DHT22;778;50.120;8.698;2022-11-20T00:36:32;2.70;99.90
1570;DHT22;778;50.120;8.698;2022-11-20T00:39:01;2.70;99.90
1570;DHT22;778;50.120;8.698;2022-11-20T00:41:30;2.60;99.90
1570;DHT22;778;50.120;8.698;2022-11-20T00:43:59;2.50;99.90
1570;DHT22;778;50.120;8.698;2022-11-20T00:46:27;2.50;99.90
1570;DHT22;778;50.120;8.698;2022-11-20T00:48:57;2.50;99.90
1570;DHT22;778;50.120;8.698;2022-11-20T00:51:27;2.50;99.90
1570;DHT22;778;50.120;8.698;2022-11-20T00:53:57;2.60;99.90
1570;DHT22;778;50.120;8.698;2022-11-20T00:56:26;2.60;99.90
1570;DHT22;778;50.120;8.698;2022-11-20T00:58:55;2.70;99.90
1570;DHT22;778;50.120;8.698;2022-11-20T01:01:27;2.60;99.90
1570;DHT22;778;50.120;8.698;2022-11-20T01:03:59;2.70;99.90
1570;DHT22;778;50.120;8.698;2022-11-20T01:06:30;2.70;99.90
1570;DHT22;778;50.120;8.698;2022-11-20T01:09:02;2.70;99.90
1570;DHT22;778;50.120;8.698;2022-11-20T01:11:33;2.70;99.90
1570;DHT22;778;50.120;8.698;2022-11-20T01:14:04;2.70;99.90
1570;DHT22;778;50.120;8.698;2022-11-20T01:16:35;2.80;99.90
1570;DHT22;778;50.120;8.698;2022-11-20T01:19:05;2.80;99.90
1570;DHT22;778;50.120;8.698;2022-11-20T01:21:39;2.70;99.90
1570;DHT22;778;50.120;8.698;2022-11-20T01:24:13;2.60;99.90
1570;DHT22;778;50.120;8.698;2022-11-20T01:26:44;2.60;99.90
1570;DHT22;778;50.120;8.698;2022-11-20T01:29:16;2.70;99.90
1570;DHT22;778;50.120;8.698;2022-11-20T01:31:46;2.70;99.90
1570;DHT22;778;50.120;8.698;2022-11-20T01:34:16;2.60;99.90
1570;DHT22;778;50.120;8.698;2022-11-20T01:36:47;2.60;99.90
1570;DHT22;778;50.120;8.698;2022-11-20T01:39:18;2.50;99.90
1570;DHT22;778;50.120;8.698;2022-11-20T01:41:49;2.50;99.90
1570;DHT22;778;50.120;8.698;2022-11-20T01:44:52;2.50;99.90
1570;DHT22;778;50.120;8.698;2022-11-20T01:47:28;2.60;99.90
1570;DHT22;778;50.120;8.698;2022-11-20T01:50:03;2.60;99.90
1570;DHT22;778;50.120;8.698;2022-11-20T01:52:38;2.60;99.90
1570;DHT22;778;50.120;8.698;2022-11-20T01:55:12;2.50;99.90
1570;DHT22;778;50.120;8.698;2022-11-20T01:57:44;2.50;99.90
1570;DHT22;778;50.120;8.698;2022-11-20T02:00:16;2.40;99.90
1570;DHT22;778;50.120;8.698;2022-11-20T02:02:49;2.50;99.90
1570;DHT22;778;50.120;8.698;2022-11-20T02:05:23;2.50;99.90
1570;DHT22;778;50.120;8.698;2022-11-20T02:07:57;2.60;99.90
1570;DHT22;778;50.120;8.698;2022-11-20T02:10:27;2.60;99.90
1570;DHT22;778;50.120;8.698;2022-11-20T02:12:56;2.70;99.90
1570;DHT22;778;50.120;8.698;2022-11-20T02:15:43;2.70;99.90
1570;DHT22;778;50.120;8.698;2022-11-20T02:18:14;2.50;99.90
1570;DHT22;778;50.120;8.698;2022-11-20T02:20:46;2.60;99.90
1570;DHT22;778;50.120;8.698;2022-11-20T02:23:21;2.60;99.90
1570;DHT22;778;50.120;8.698;2022-11-20T02:25:56;2.50;99.90
1570;DHT22;778;50.120;8.698;2022-11-20T02:28:25;2.60;99.90
1570;DHT22;778;50.120;8.698;2022-11-20T02:30:55;2.50;99.90
1570;DHT22;778;50.120;8.698;2022-11-20T02:33:23;2.50;99.90
1570;DHT22;778;50.120;8.698;2022-11-20T02:35:52;2.30;99.90
1570;DHT22;778;50.120;8.698;2022-11-20T02:38:20;2.30;99.90
1570;DHT22;778;50.120;8.698;2022-11-20T02:40:49;2.30;99.90
1570;DHT22;778;50.120;8.698;2022-11-20T02:43:23;2.20;99.90
1570;DHT22;778;50.120;8.698;2022-11-20T02:45:51;2.30;99.90
1570;DHT22;778;50.120;8.698;2022-11-20T02:48:20;2.20;99.90
1570;DHT22;778;50.120;8.698;2022-11-20T02:50:51;2.20;99.90
1570;DHT22;778;50.120;8.698;2022-11-20T02:53:19;2.60;99.90
1570;DHT22;778;50.120;8.698;2022-11-20T02:55:47;3.00;99.90
1570;DHT22;778;50.120;8.698;2022-11-20T02:58:16;3.30;99.90
1570;DHT22;778;50.120;8.698;2022-11-20T03:00:46;3.20;99.90
1570;DHT22;778;50.120;8.698;2022-11-20T03:03:14;3.20;99.90
1570;DHT22;778;50.120;8.698;2022-11-20T03:05:43;3.50;99.90
1570;DHT22;778;50.120;8.698;2022-11-20T03:08:11;3.20;99.90
1570;DHT22;778;50.120;8.698;2022-11-20T03:10:40;3.20;99.90
1570;DHT22;778;50.120;8.698;2022-11-20T03:13:08;2.90;99.90
1570;DHT22;778;50.120;8.698;2022-11-20T03:15:36;2.80;99.90
1570;DHT22;778;50.120;8.698;2022-11-20T03:18:06;3.10;99.90
1570;DHT22;778;50.120;8.698;2022-11-20T03:20:35;2.80;99.90
1570;DHT22;778;50.120;8.698;2022-11-20T03:23:03;2.90;99.90
1570;DHT22;778;50.120;8.698;2022-11-20T03:25:32;3.00;99.90
1570;DHT22;778;50.120;8.698;2022-11-20T03:28:00;3.00;99.90
1570;DHT22;778;50.120;8.698;2022-11-20T03:30:28;3.10;99.90
1570;DHT22;778;50.120;8.698;2022-11-20T03:32:57;3.30;99.90
1570;DHT22;778;50.120;8.698;2022-11-20T03:35:27;3.60;99.90
1570;DHT22;778;50.120;8.698;2022-11-20T03:37:55;3.50;99.90
1570;DHT22;778;50.120;8.698;2022-11-20T03:40:23;3.20;99.90
1570;DHT22;778;50.120;8.698;2022-11-20T03:42:52;2.70;99.90
1570;DHT22;778;50.120;8.698;2022-11-20T03:45:20;2.50;99.90
1570;DHT22;778;50.120;8.698;2022-11-20T03:47:49;2.50;99.90
1570;DHT22;778;50.120;8.698;2022-11-20T03:50:17;2.50;99.90
1570;DHT22;778;50.120;8.698;2022-11-20T03:52:47;2.50;99.90
1570;DHT22;778;50.120;8.698;2022-11-20T03:55:15;2.50;99.90
1570;DHT22;778;50.120;8.698;2022-11-20T03:57:44;2.30;99.90
1570;DHT22;778;50.120;8.698;2022-11-20T04:02:42;2.10;99.90
1570;DHT22;778;50.120;8.698;2022-11-20T04:05:11;2.10;99.90
1570;DHT22;778;50.120;8.698;2022-11-20T04:07:39;2.10;99.90
1570;DHT22;778;50.120;8.698;2022-11-20T04:10:09;2.10;99.90
1570;DHT22;778;50.120;8.698;2022-11-20T04:12:37;2.10;99.90
1570;DHT22;778;50.120;8.698;2022-11-20T04:15:06;2.10;99.90
1570;DHT22;778;50.120;8.698;2022-11-20T04:17:35;2.20;99.90
1570;DHT22;778;50.120;8.698;2022-11-20T04:20:05;2.20;99.90
1570;DHT22;778;50.120;8.698;2022-11-20T04:22:34;2.30;99.90
1570;DHT22;778;50.120;8.698;2022-11-20T04:25:03;2.30;99.90
1570;DHT22;778;50.120;8.698;2022-11-20T04:27:33;2.30;99.90
1570;DHT22;778;50.120;8.698;2022-11-20T04:30:02;2.30;99.90
1570;DHT22;778;50.120;8.698;2022-11-20T04:32:30;2.30;99.90
1570;DHT22;778;50.120;8.698;2022-11-20T04:35:00;2.30;99.90
1570;DHT22;778;50.120;8.698;2022-11-20T04:37:28;2.30;99.90
1570;DHT22;778;50.120;8.698;2022-11-20T04:39:56;2.20;99.90
1570;DHT22;778;50.120;8.698;2022-11-20T04:42:25;2.30;99.90
1570;DHT22;778;50.120;8.698;2022-11-20T04:44:58;2.40;99.90
1570;DHT22;778;50.120;8.698;2022-11-20T04:47:26;2.40;99.90
1570;DHT22;778;50.120;8.698;2022-11-20T04:49:54;2.40;99.90
1570;DHT22;778;50.120;8.698;2022-11-20T04:52:23;2.30;99.90
1570;DHT22;778;50.120;8.698;2022-11-20T04:54:52;2.30;99.90
1570;DHT22;778;50.120;8.698;2022-11-20T04:57:20;2.20;99.90
1570;DHT22;778;50.120;8.698;2022-11-20T04:59:49;2.20;99.90
1570;DHT22;778;50.120;8.698;2022-11-20T05:02:19;2.30;99.90
1570;DHT22;778;50.120;8.698;2022-11-20T05:04:47;2.20;99.90
1570;DHT22;778;50.120;8.698;2022-11-20T05:07:16;2.10;99.90
1570;DHT22;778;50.120;8.698;2022-11-20T05:09:45;2.10;99.90
1570;DHT22;778;50.120;8.698;2022-11-20T05:12:13;2.10;99.90
1570;DHT22;778;50.120;8.698;2022-11-20T05:14:41;2.10;99.90
1570;DHT22;778;50.120;8.698;2022-11-20T05:17:10;2.20;99.90
1570;DHT22;778;50.120;8.698;2022-11-20T05:19:40;2.30;99.90
1570;DHT22;778;50.120;8.698;2022-11-20T05:22:09;2.40;99.90
1570;DHT22;778;50.120;8.698;2022-11-20T05:24:37;2.40;99.90
1570;DHT22;778;50.120;8.698;2022-11-20T05:27:05;2.40;99.90
1570;DHT22;778;50.120;8.698;2022-11-20T05:29:34;2.50;99.90
1570;DHT22;778;50.120;8.698;2022-11-20T05:32:02;2.50;99.90
1570;DHT22;778;50.120;8.698;2022-11-20T05:34:32;2.40;99.90
1570;DHT22;778;50.120;8.698;2022-11-20T05:37:02;2.40;99.90
1570;DHT22;778;50.120;8.698;2022-11-20T05:39:31;2.50;99.90
1570;DHT22;778;50.120;8.698;2022-11-20T05:41:59;2.50;99.90
1570;DHT22;778;50.120;8.698;2022-11-20T05:44:45;2.60;99.90
1570;DHT22;778;50.120;8.698;2022-11-20T05:47:13;2.60;99.90
1570;DHT22;778;50.120;8.698;2022-11-20T05:49:42;2.60;99.90
1570;DHT22;778;50.120;8.698;2022-11-20T05:52:12;2.60;99.90
1570;DHT22;778;50.120;8.698;2022-11-20T05:54:40;2.50;99.90
1570;DHT22;778;50.120;8.698;2022-11-20T05:57:08;2.50;99.90
1570;DHT22;778;50.120;8.698;2022-11-20T05:59:37;2.50;99.90
1570;DHT22;778;50.120;8.698;2022-11-20T06:02:05;2.50;99.90
1570;DHT22;778;50.120;8.698;2022-11-20T06:04:33;2.50;99.90
1570;DHT22;778;50.120;8.698;2022-11-20T06:07:02;2.50;99.90
1570;DHT22;778;50.120;8.698;2022-11-20T06:09:32;2.50;99.90
1570;DHT22;778;50.120;8.698;2022-11-20T06:12:00;2.60;99.90
1570;DHT22;778;50.120;8.698;2022-11-20T06:14:29;2.70;99.90
1570;DHT22;778;50.120;8.698;2022-11-20T06:16:57;2.70;99.90
1570;DHT22;778;50.120;8.698;2022-11-20T06:19:26;2.60;99.90
1570;DHT22;778;50.120;8.698;2022-11-20T06:21:54;2.50;99.90
1570;DHT22;778;50.120;8.698;2022-11-20T06:24:22;2.60;99.90
1570;DHT22;778;50.120;8.698;2022-11-20T06:26:53;2.60;99.90
1570;DHT22;778;50.120;8.698;2022-11-20T06:29:21;2.60;99.90
1570;DHT22;778;50.120;8.698;2022-11-20T06:31:55;2.60;99.90
1570;DHT22;778;50.120;8.698;2022-11-20T06:34:26;2.50;99.90
1570;DHT22;778;50.120;8.698;2022-11-20T06:36:55;2.50;99.90
1570;DHT22;778;50.120;8.698;2022-11-20T06:39:23;2.40;99.90
1570;DHT22;778;50.120;8.698;2022-11-20T06:41:53;2.20;99.90
1570;DHT22;778;50.120;8.698;2022-11-20T06:44:25;2.10;99.90
1570;DHT22;778;50.120;8.698;2022-11-20T06:46:53;2.10;99.90
1570;DHT22;778;50.120;8.698;2022-11-20T06:49:22;2.10;99.90
1570;DHT22;778;50.120;8.698;2022-11-20T06:51:51;2.00;99.90
1570;DHT22;778;50.120;8.698;2022-11-20T06:54:19;2.10;99.90
1570;DHT22;778;50.120;8.698;2022-11-20T06:56:48;2.30;99.90
1570;DHT22;778;50.120;8.698;2022-11-20T06:59:18;2.30;99.90
1570;DHT22;778;50.120;8.698;2022-11-20T07:01:47;2.20;99.90
1570;DHT22;778;50.120;8.698;2022-11-20T07:04:15;2.10;99.90
1570;DHT22;778;50.120;8.698;2022-11-20T07:06:43;2.20;99.90
1570;DHT22;778;50.120;8.698;2022-11-20T07:09:12;2.10;99.90
1570;DHT22;778;50.120;8.698;2022-11-20T07:11:40;2.20;99.90
1570;DHT22;778;50.120;8.698;2022-11-20T07:14:09;2.20;99.90
1570;DHT22;778;50.120;8.698;2022-11-20T07:16:38;2.30;99.90
1570;DHT22;778;50.120;8.698;2022-11-20T07:19:07;2.40;99.90
1570;DHT22;778;50.120;8.698;2022-11-20T07:21:35;2.40;99.90
1570;DHT22;778;50.120;8.698;2022-11-20T07:24:04;2.50;99.90
1570;DHT22;778;50.120;8.698;2022-11-20T07:26:32;2.60;99.90
1570;DHT22;778;50.120;8.698;2022-11-20T07:29:01;2.60;99.90
1570;DHT22;778;50.120;8.698;2022-11-20T07:31:29;2.60;99.90
1570;DHT22;778;50.120;8.698;2022-11-20T07:33:59;2.60;99.90
1570;DHT22;778;50.120;8.698;2022-11-20T07:36:28;2.60;99.90
1570;DHT22;778;50.120;8.698;2022-11-20T07:38:56;2.60;99.90
1570;DHT22;778;50.120;8.698;2022-11-20T07:41:24;2.70;99.90
1570;DHT22;778;50.120;8.698;2022-11-20T07:43:54;2.70;99.90
1570;DHT22;778;50.120;8.698;2022-11-20T07:46:22;2.70;99.90
1570;DHT22;778;50.120;8.698;2022-11-20T07:48:51;2.70;99.90
1570;DHT22;778;50.120;8.698;2022-11-20T07:51:21;2.70;99.90
1570;DHT22;778;50.120;8.698;2022-11-20T07:53:51;2.70;99.90
1570;DHT22;778;50.120;8.698;2022-11-20T07:56:19;2.70;99.90
1570;DHT22;778;50.120;8.698;2022-11-20T07:58:48;2.80;99.90
1570;DHT22;778;50.120;8.698;2022-11-20T08:01:16;2.80;99.90
1570;DHT22;778;50.120;8.698;2022-11-20T08:03:45;2.80;99.90
1570;DHT22;778;50.120;8.698;2022-11-20T08:06:13;2.80;99.90
1570;DHT22;778;50.120;8.698;2022-11-20T08:08:43;2.80;99.90
1570;DHT22;778;50.120;8.698;2022-11-20T08:11:12;2.80;99.90
1570;DHT22;778;50.120;8.698;2022-11-20T08:13:58;2.80;99.90
1570;DHT22;778;50.120;8.698;2022-11-20T08:16:39;2.80;99.90
1570;DHT22;778;50.120;8.698;2022-11-20T08:19:08;2.80;99.90
1570;DHT22;778;50.120;8.698;2022-11-20T08:21:36;2.90;99.90
1570;DHT22;778;50.120;8.698;2022-11-20T08:24:07;3.00;99.90
1570;DHT22;778;50.120;8.698;2022-11-20T08:26:37;3.10;99.90
1570;DHT22;778;50.120;8.698;2022-11-20T08:29:06;3.10;99.90
1570;DHT22;778;50.120;8.698;2022-11-20T08:31:35;3.20;99.90
1570;DHT22;778;50.120;8.698;2022-11-20T08:34:03;3.20;99.90
1570;DHT22;778;50.120;8.698;2022-11-20T08:36:36;3.20;99.90
1570;DHT22;778;50.120;8.698;2022-11-20T08:39:05;3.30;99.90
1570;DHT22;778;50.120;8.698;2022-11-20T08:41:34;3.30;99.90
1570;DHT22;778;50.120;8.698;2022-11-20T08:44:05;3.20;99.90
1570;DHT22;778;50.120;8.698;2022-11-20T08:46:36;3.20;99.90
1570;DHT22;778;50.120;8.698;2022-11-20T08:49:07;3.10;99.90
1570;DHT22;778;50.120;8.698;2022-11-20T08:51:38;3.10;99.90
1570;DHT22;778;50.120;8.698;2022-11-20T08:54:08;3.10;99.90
1570;DHT22;778;50.120;8.698;2022-11-20T08:56:36;3.20;99.90
1570;DHT22;778;50.120;8.698;2022-11-20T08:59:05;3.30;99.90
1570;DHT22;778;50.120;8.698;2022-11-20T09:01:53;3.30;99.90
1570;DHT22;778;50.120;8.698;2022-11-20T09:04:22;3.40;99.90
1570;DHT22;778;50.120;8.698;2022-11-20T09:06:50;3.50;99.90
1570;DHT22;778;50.120;8.698;2022-11-20T09:09:20;3.50;99.90
1570;DHT22;778;50.120;8.698;2022-11-20T09:11:49;3.50;99.90
1570;DHT22;778;50.120;8.698;2022-11-20T09:14:18;3.60;99.90
1570;DHT22;778;50.120;8.698;2022-11-20T09:16:46;3.70;99.90
1570;DHT22;778;50.120;8.698;2022-11-20T09:19:15;3.80;99.90
1570;DHT22;778;50.120;8.698;2022-11-20T09:22:03;3.90;99.90
1570;DHT22;778;50.120;8.698;2022-11-20T09:24:33;4.00;99.90
1570;DHT22;778;50.120;8.698;2022-11-20T09:27:03;4.10;99.90
1570;DHT22;778;50.120;8.698;2022-11-20T09:29:32;4.10;99.90
1570;DHT22;778;50.120;8.698;2022-11-20T09:32:00;4.10;99.90
1570;DHT22;778;50.120;8.698;2022-11-20T09:34:29;4.20;99.90
1570;DHT22;778;50.120;8.698;2022-11-20T09:36:57;4.20;99.90
1570;DHT22;778;50.120;8.698;2022-11-20T09:39:33;4.20;99.90
1570;DHT22;778;50.120;8.698;2022-11-20T09:42:20;4.30;99.90
1570;DHT22;778;50.120;8.698;2022-11-20T09:45:08;4.50;99.90
1570;DHT22;778;50.120;8.698;2022-11-20T09:47:57;4.60;99.90
1570;DHT22;778;50.120;8.698;2022-11-20T09:50:35;4.90;99.90
1570;DHT22;778;50.120;8.698;2022-11-20T09:53:12;4.90;99.90
1570;DHT22;778;50.120;8.698;2022-11-20T09:55:44;5.00;99.90
1570;DHT22;778;50.120;8.698;2022-11-20T09:58:18;5.10;99.90
1570;DHT22;778;50.120;8.698;2022-11-20T10:00:53;5.30;99.90
1570;DHT22;778;50.120;8.698;2022-11-20T10:03:34;5.70;99.90
1570;DHT22;778;50.120;8.698;2022-11-20T10:06:10;6.00;99.90
1570;DHT22;778;50.120;8.698;2022-11-20T10:08:43;6.00;99.90
1570;DHT22;778;50.120;8.698;2022-11-20T10:11:19;5.90;99.90
1570;DHT22;778;50.120;8.698;2022-11-20T10:13:59;5.90;99.90
1570;DHT22;778;50.120;8.698;2022-11-20T10:16:36;6.10;99.90
1570;DHT22;778;50.120;8.698;2022-11-20T10:19:23;6.10;99.90
1570;DHT22;778;50.120;8.698;2022-11-20T10:22:09;6.10;99.90
1570;DHT22;778;50.120;8.698;2022-11-20T10:24:51;5.90;99.90
1570;DHT22;778;50.120;8.698;2022-11-20T10:27:39;5.80;99.90
1570;DHT22;778;50.120;8.698;2022-11-20T10:30:24;5.80;99.90
1570;DHT22;778;50.120;8.698;2022-11-20T10:32:58;5.70;99.90
1570;DHT22;778;50.120;8.698;2022-11-20T10:35:35;5.70;99.90
1570;DHT22;778;50.120;8.698;2022-11-20T10:38:11;5.60;99.90
1570;DHT22;778;50.120;8.698;2022-11-20T10:40:45;5.50;99.90
1570;DHT22;778;50.120;8.698;2022-11-20T10:43:21;5.50;99.90
1570;DHT22;778;50.120;8.698;2022-11-20T10:45:58;5.40;99.90
1570;DHT22;778;50.120;8.698;2022-11-20T10:48:31;5.30;99.90
1570;DHT22;778;50.120;8.698;2022-11-20T10:51:09;5.30;99.90
1570;DHT22;778;50.120;8.698;2022-11-20T10:53:53;5.30;99.90
1570;DHT22;778;50.120;8.698;2022-11-20T10:56:31;5.20;99.90
1570;DHT22;778;50.120;8.698;2022-11-20T10:59:34;5.20;99.90
1570;DHT22;778;50.120;8.698;2022-11-20T11:02:17;5.30;99.90
1570;DHT22;778;50.120;8.698;2022-11-20T11:04:49;5.30;99.90
1570;DHT22;778;50.120;8.698;2022-11-20T11:07:22;5.30;99.90
1570;DHT22;778;50.120;8.698;2022-11-20T11:09:53;5.40;99.90
1570;DHT22;778;50.120;8.698;2022-11-20T11:12:25;5.30;99.90
1570;DHT22;778;50.120;8.698;2022-11-20T11:14:56;5.30;99.90
1570;DHT22;778;50.120;8.698;2022-11-20T11:17:27;5.40;99.90
1570;DHT22;778;50.120;8.698;2022-11-20T11:20:06;5.40;99.90
1570;DHT22;778;50.120;8.698;2022-11-20T11:22:44;5.40;99.90
1570;DHT22;778;50.120;8.698;2022-11-20T11:25:26;5.40;99.90
1570;DHT22;778;50.120;8.698;2022-11-20T11:27:58;5.50;99.90
1570;DHT22;778;50.120;8.698;2022-11-20T11:30:30;5.40;99.90
1570;DHT22;778;50.120;8.698;2022-11-20T11:33:10;5.40;99.90
1570;DHT22;778;50.120;8.698;2022-11-20T11:35:45;5.40;99.90
1570;DHT22;778;50.120;8.698;2022-11-20T11:38:22;5.50;99.90
1570;DHT22;778;50.120;8.698;2022-11-20T11:40:53;5.40;99.90
1570;DHT22;778;50.120;8.698;2022-11-20T11:43:25;5.40;99.90
1570;DHT22;778;50.120;8.698;2022-11-20T11:46:28;5.40;99.90
1570;DHT22;778;50.120;8.698;2022-11-20T11:49:00;5.50;99.90
1570;DHT22;778;50.120;8.698;2022-11-20T11:51:34;5.50;99.90
1570;DHT22;778;50.120;8.698;2022-11-20T11:54:15;5.60;99.90
1570;DHT22;778;50.120;8.698;2022-11-20T11:56:45;5.70;99.90
1570;DHT22;778;50.120;8.698;2022-11-20T11:59:25;5.70;99.90
1570;DHT22;778;50.120;8.698;2022-11-20T12:02:01;5.70;99.90
1570;DHT22;778;50.120;8.698;2022-11-20T12:04:42;5.70;99.90
1570;DHT22;778;50.120;8.698;2022-11-20T12:07:15;5.80;99.90
1570;DHT22;778;50.120;8.698;2022-11-20T12:10:16;5.90;99.90
1570;DHT22;778;50.120;8.698;2022-11-20T12:12:52;6.10;99.90
1570;DHT22;778;50.120;8.698;2022-11-20T12:15:30;6.30;99.90
1570;DHT22;778;50.120;8.698;2022-11-20T12:18:04;6.50;99.90
1570;DHT22;778;50.120;8.698;2022-11-20T12:20:43;6.50;99.90
1570;DHT22;778;50.120;8.698;2022-11-20T12:23:20;6.40;99.90
1570;DHT22;778;50.120;8.698;2022-11-20T12:25:54;6.30;99.90
1570;DHT22;778;50.120;8.698;2022-11-20T12:28:38;6.30;99.90
1570;DHT22;778;50.120;8.698;2022-11-20T12:31:38;6.30;99.90
1570;DHT22;778;50.120;8.698;2022-11-20T12:34:36;6.30;99.90
1570;DHT22;778;50.120;8.698;2022-11-20T12:37:21;6.20;99.90
1570;DHT22;778;50.120;8.698;2022-11-20T12:40:04;6.30;99.90
1570;DHT22;778;50.120;8.698;2022-11-20T12:42:56;6.30;99.90
1570;DHT22;778;50.120;8.698;2022-11-20T12:46:02;6.30;99.90
1570;DHT22;778;50.120;8.698;2022-11-20T12:48:43;6.20;99.90
1570;DHT22;778;50.120;8.698;2022-11-20T12:51:36;6.10;99.90
1570;DHT22;778;50.120;8.698;2022-11-20T12:54:31;6.10;99.90
1570;DHT22;778;50.120;8.698;2022-11-20T12:57:20;6.00;99.90
1570;DHT22;778;50.120;8.698;2022-11-20T13:00:06;6.00;99.90
1570;DHT22;778;50.120;8.698;2022-11-20T13:02:58;6.00;99.90
1570;DHT22;778;50.120;8.698;2022-11-20T13:05:41;6.00;99.90
1570;DHT22;778;50.120;8.698;2022-11-20T13:08:20;6.00;99.90
1570;DHT22;778;50.120;8.698;2022-11-20T13:10:56;6.00;99.90
1570;DHT22;778;50.120;8.698;2022-11-20T13:13:35;6.00;99.90
1570;DHT22;778;50.120;8.698;2022-11-20T13:16:14;6.00;99.90
1570;DHT22;778;50.120;8.698;2022-11-20T13:18:44;6.00;99.90
1570;DHT22;778;50.120;8.698;2022-11-20T13:21:15;6.00;99.90
1570;DHT22;778;50.120;8.698;2022-11-20T13:23:46;6.00;99.90
1570;DHT22;778;50.120;8.698;2022-11-20T13:26:19;5.90;99.90
1570;DHT22;778;50.120;8.698;2022-11-20T13:29:02;5.90;99.90
1570;DHT22;778;50.120;8.698;2022-11-20T13:31:35;6.10;99.90
1570;DHT22;778;50.120;8.698;2022-11-20T13:34:06;6.00;99.90
1570;DHT22;778;50.120;8.698;2022-11-20T13:36:35;5.80;99.90
1570;DHT22;778;50.120;8.698;2022-11-20T13:39:05;5.80;99.90
1570;DHT22;778;50.120;8.698;2022-11-20T13:41:35;5.80;99.90
1570;DHT22;778;50.120;8.698;2022-11-20T13:44:10;5.80;99.90
1570;DHT22;778;50.120;8.698;2022-11-20T13:46:43;5.80;99.90
1570;DHT22;778;50.120;8.698;2022-11-20T13:49:25;5.80;99.90
1570;DHT22;778;50.120;8.698;2022-11-20T13:52:03;5.80;99.90
1570;DHT22;778;50.120;8.698;2022-11-20T13:54:52;5.90;99.90
1570;DHT22;778;50.120;8.698;2022-11-20T13:57:52;5.80;99.90
1570;DHT22;778;50.120;8.698;2022-11-20T14:00:43;5.80;99.90
1570;DHT22;778;50.120;8.698;2022-11-20T14:03:18;5.70;99.90
1570;DHT22;778;50.120;8.698;2022-11-20T14:06:14;5.70;99.90
1570;DHT22;778;50.120;8.698;2022-11-20T14:08:48;5.70;99.90
1570;DHT22;778;50.120;8.698;2022-11-20T14:11:21;5.70;99.90
1570;DHT22;778;50.120;8.698;2022-11-20T14:14:00;5.80;99.90
1570;DHT22;778;50.120;8.698;2022-11-20T14:16:32;5.80;99.90
1570;DHT22;778;50.120;8.698;2022-11-20T14:19:26;5.80;99.90
1570;DHT22;778;50.120;8.698;2022-11-20T14:22:09;5.70;99.90
1570;DHT22;778;50.120;8.698;2022-11-20T14:24:42;5.80;99.90
1570;DHT22;778;50.120;8.698;2022-11-20T14:27:15;5.70;99.90
1570;DHT22;778;50.120;8.698;2022-11-20T14:29:47;5.70;99.90
1570;DHT22;778;50.120;8.698;2022-11-20T14:32:17;5.70;99.90
1570;DHT22;778;50.120;8.698;2022-11-20T14:34:49;5.70;99.90
1570;DHT22;778;50.120;8.698;2022-11-20T14:37:21;5.80;99.90
1570;DHT22;778;50.120;8.698;2022-11-20T14:39:53;5.80;99.90
1570;DHT22;778;50.120;8.698;2022-11-20T14:42:25;5.80;99.90
1570;DHT22;778;50.120;8.698;2022-11-20T14:44:56;5.80;99.90
1570;DHT22;778;50.120;8.698;2022-11-20T14:47:26;5.90;99.90
1570;DHT22;778;50.120;8.698;2022-11-20T14:49:58;5.90;99.90
1570;DHT22;778;50.120;8.698;2022-11-20T14:52:33;5.80;99.90
1570;DHT22;778;50.120;8.698;2022-11-20T14:55:01;5.80;99.90
1570;DHT22;778;50.120;8.698;2022-11-20T14:57:32;5.80;99.90
1570;DHT22;778;50.120;8.698;2022-11-20T15:00:08;5.80;99.90
1570;DHT22;778;50.120;8.698;2022-11-20T15:02:48;5.80;99.90
1570;DHT22;778;50.120;8.698;2022-11-20T15:05:19;5.80;99.90
1570;DHT22;778;50.120;8.698;2022-11-20T15:07:51;5.80;99.90
1570;DHT22;778;50.120;8.698;2022-11-20T15:10:22;5.90;99.90
1570;DHT22;778;50.120;8.698;2022-11-20T15:12:54;5.90;99.90
1570;DHT22;778;50.120;8.698;2022-11-20T15:15:28;5.90;99.90
1570;DHT22;778;50.120;8.698;2022-11-20T15:17:59;5.80;99.90
1570;DHT22;778;50.120;8.698;2022-11-20T15:20:31;5.80;99.90
1570;DHT22;778;50.120;8.698;2022-11-20T15:23:00;5.80;99.90
1570;DHT22;778;50.120;8.698;2022-11-20T15:25:28;5.80;99.90
1570;DHT22;778;50.120;8.698;2022-11-20T15:27:58;5.80;99.90
1570;DHT22;778;50.120;8.698;2022-11-20T15:30:27;5.80;99.90
1570;DHT22;778;50.120;8.698;2022-11-20T15:32:55;5.80;99.90
1570;DHT22;778;50.120;8.698;2022-11-20T15:35:24;5.80;99.90
1570;DHT22;778;50.120;8.698;2022-11-20T15:37:53;5.80;99.90
1570;DHT22;778;50.120;8.698;2022-11-20T15:40:22;5.80;99.90
1570;DHT22;778;50.120;8.698;2022-11-20T15:42:50;5.80;99.90
1570;DHT22;778;50.120;8.698;2022-11-20T15:45:42;5.80;99.90
1570;DHT22;778;50.120;8.698;2022-11-20T15:48:15;5.80;99.90
1570;DHT22;778;50.120;8.698;2022-11-20T15:50:52;5.70;99.90
1570;DHT22;778;50.120;8.698;2022-11-20T15:53:22;5.80;99.90
1570;DHT22;778;50.120;8.698;2022-11-20T15:55:51;5.80;99.90
1570;DHT22;778;50.120;8.698;2022-11-20T15:58:19;5.80;99.90
1570;DHT22;778;50.120;8.698;2022-11-20T16:00:51;5.80;99.90
1570;DHT22;778;50.120;8.698;2022-11-20T16:03:20;5.80;99.90
1570;DHT22;778;50.120;8.698;2022-11-20T16:05:48;5.80;99.90
1570;DHT22;778;50.120;8.698;2022-11-20T16:08:17;5.80;99.90
1570;DHT22;778;50.120;8.698;2022-11-20T16:10:46;5.70;99.90
1570;DHT22;778;50.120;8.698;2022-11-20T16:13:17;5.70;99.90
1570;DHT22;778;50.120;8.698;2022-11-20T16:16:07;5.70;99.90
1570;DHT22;778;50.120;8.698;2022-11-20T16:18:37;5.70;99.90
1570;DHT22;778;50.120;8.698;2022-11-20T16:21:11;5.70;99.90
1570;DHT22;778;50.120;8.698;2022-11-20T16:23:40;5.70;99.90
1570;DHT22;778;50.120;8.698;2022-11-20T16:26:10;5.80;99.90
1570;DHT22;778;50.120;8.698;2022-11-20T16:28:40;5.90;99.90
1570;DHT22;778;50.120;8.698;2022-11-20T16:31:11;5.80;99.90
1570;DHT22;778;50.120;8.698;2022-11-20T16:33:41;5.90;99.90
1570;DHT22;778;50.120;8.698;2022-11-20T16:36:10;5.80;99.90
1570;DHT22;778;50.120;8.698;2022-11-20T16:38:40;5.80;99.90
1570;DHT22;778;50.120;8.698;2022-11-20T16:41:09;5.80;99.90
1570;DHT22;778;50.120;8.698;2022-11-20T16:43:47;5.80;99.90
1570;DHT22;778;50.120;8.698;2022-11-20T16:46:23;5.70;99.90
1570;DHT22;778;50.120;8.698;2022-11-20T16:48:53;5.70;99.90
1570;DHT22;778;50.120;8.698;2022-11-20T16:51:24;5.70;99.90
1570;DHT22;778;50.120;8.698;2022-11-20T16:53:52;5.60;99.90
1570;DHT22;778;50.120;8.698;2022-11-20T16:56:24;5.60;99.90
1570;DHT22;778;50.120;8.698;2022-11-20T16:58:55;5.60;99.90
1570;DHT22;778;50.120;8.698;2022-11-20T17:01:27;5.60;99.90
1570;DHT22;778;50.120;8.698;2022-11-20T17:03:58;5.60;99.90
1570;DHT22;778;50.120;8.698;2022-11-20T17:06:29;5.70;99.90
1570;DHT22;778;50.120;8.698;2022-11-20T17:08:58;5.70;99.90
1570;DHT22;778;50.120;8.698;2022-11-20T17:11:27;5.70;99.90
1570;DHT22;778;50.120;8.698;2022-11-20T17:13:56;5.70;99.90